Airfield :
LOGIN :

Register | Disclaimer

   EN    FR    IT 

 










Legend :    VFR   Marginal VFR   IFR   Intensive IFR   Very Intensive IFR
Visi :
Ceiling :
>= 8 km
>= 3000ft
5 to 8 km
1000 to 3000 ft
1500m to 5 km
500 to 1000 ft
800 to 1500m
200 to 500 ft
< 800m
< 200 ft
Symbols :   Thunderstorms  Fog  Heavy snow  Heavy precipitations  Wind > 20 kt
SIGMETs :     Misc.  Thunderstorms  Icing  Turbulence  Mountain Waves  Volcanic Ashes






- Airport Elevation : 357 ft
- IATA code : TUF


LFOT - Tours

CURRENT METAR :
  • 220330Z AUTO 34002KT CAVOK 05/05 Q1023 TEMPO 0400 FG VV///

EXPIRED METARs :
  • 220300Z AUTO 00000KT CAVOK 05/05 Q1022 TEMPO 0400 FG VV///
  • 220230Z AUTO 08002KT CAVOK 05/05 Q1023 TEMPO 0400 FG VV///
  • 220200Z AUTO 36002KT CAVOK 06/05 Q1023 TEMPO 0400 FG VV///
  • 220130Z AUTO 00000KT 9999 1500 NSC 06/06 Q1023 TEMPO 0400 FG VV///
  • 220100Z AUTO 00000KT CAVOK 06/06 Q1023 TEMPO 1200 BR BKN004

TAF TAF LFOT
Valid from the 22 at 00:00 until the 23 at 00:00 UTC


212300Z 2200/2224 VRB03KT CAVOK
TEMPO 2200/2211 1200 BR BKN004
PROB40
TEMPO 2203/2210 0400 FG VV///
BECMG 2210/2212 04010KT
TEMPO 2216/2222 -RA
TEMPO 2222/2224 BKN008



MET'MAP, your aeronautical weather chart ! - Copyright ORBIFLY December 2007 - Disclaimer

ORBIFLY MET'MAP TEAM :

Programming & Development : Alexandra Zaïnal
Concept & Development : Baudouin d'Aumeries
Co-Development & Prog : Marc-Olivier Méhu
Technical & hardware support : Manuel Goepfert

Contact : metmap@orbifly.com




SOURCES & CREDITS :

   NOAA